sensor_id;sensor_type;location;lat;lon;timestamp;P1;durP1;ratioP1;P2;durP2;ratioP2
12635;SDS011;6383;50.830;7.210;2023-04-06T00:02:08;13.65;;;10.05;;
12635;SDS011;6383;50.830;7.210;2023-04-06T00:04:37;10.80;;;9.20;;
12635;SDS011;6383;50.830;7.210;2023-04-06T00:07:05;17.67;;;9.23;;
12635;SDS011;6383;50.830;7.210;2023-04-06T00:09:32;12.85;;;9.40;;
12635;SDS011;6383;50.830;7.210;2023-04-06T00:12:03;14.77;;;10.05;;
12635;SDS011;6383;50.830;7.210;2023-04-06T00:14:31;11.43;;;8.40;;
12635;SDS011;6383;50.830;7.210;2023-04-06T00:16:59;11.25;;;9.68;;
12635;SDS011;6383;50.830;7.210;2023-04-06T00:19:27;14.35;;;11.35;;
12635;SDS011;6383;50.830;7.210;2023-04-06T00:21:55;15.52;;;12.40;;
12635;SDS011;6383;50.830;7.210;2023-04-06T00:24:24;16.25;;;12.18;;
12635;SDS011;6383;50.830;7.210;2023-04-06T00:26:52;17.65;;;11.98;;
12635;SDS011;6383;50.830;7.210;2023-04-06T00:29:23;14.02;;;10.73;;
12635;SDS011;6383;50.830;7.210;2023-04-06T00:31:58;14.82;;;11.30;;
12635;SDS011;6383;50.830;7.210;2023-04-06T00:34:28;12.68;;;9.25;;
12635;SDS011;6383;50.830;7.210;2023-04-06T00:36:57;12.70;;;9.57;;
12635;SDS011;6383;50.830;7.210;2023-04-06T00:39:33;14.10;;;10.05;;
12635;SDS011;6383;50.830;7.210;2023-04-06T00:42:02;15.38;;;10.00;;
12635;SDS011;6383;50.830;7.210;2023-04-06T00:44:40;10.18;;;8.80;;
12635;SDS011;6383;50.830;7.210;2023-04-06T00:47:09;12.93;;;8.23;;
12635;SDS011;6383;50.830;7.210;2023-04-06T00:49:37;10.48;;;8.32;;
12635;SDS011;6383;50.830;7.210;2023-04-06T00:52:07;10.98;;;9.13;;
12635;SDS011;6383;50.830;7.210;2023-04-06T00:54:36;9.82;;;8.85;;
12635;SDS011;6383;50.830;7.210;2023-04-06T00:57:04;13.15;;;8.23;;
12635;SDS011;6383;50.830;7.210;2023-04-06T00:59:33;13.68;;;8.43;;
12635;SDS011;6383;50.830;7.210;2023-04-06T01:02:03;9.55;;;8.65;;
12635;SDS011;6383;50.830;7.210;2023-04-06T01:04:33;11.70;;;8.50;;
12635;SDS011;6383;50.830;7.210;2023-04-06T01:07:01;12.00;;;8.38;;
12635;SDS011;6383;50.830;7.210;2023-04-06T01:09:29;11.23;;;8.50;;
12635;SDS011;6383;50.830;7.210;2023-04-06T01:11:58;11.95;;;8.20;;
12635;SDS011;6383;50.830;7.210;2023-04-06T01:14:27;9.52;;;8.60;;
12635;SDS011;6383;50.830;7.210;2023-04-06T01:16:57;11.65;;;8.13;;
12635;SDS011;6383;50.830;7.210;2023-04-06T01:19:27;11.32;;;8.02;;
12635;SDS011;6383;50.830;7.210;2023-04-06T01:21:56;9.75;;;8.48;;
12635;SDS011;6383;50.830;7.210;2023-04-06T01:24:25;10.00;;;8.88;;
12635;SDS011;6383;50.830;7.210;2023-04-06T01:26:54;10.75;;;8.55;;
12635;SDS011;6383;50.830;7.210;2023-04-06T01:29:24;15.02;;;9.05;;
12635;SDS011;6383;50.830;7.210;2023-04-06T01:31:52;11.82;;;7.45;;
12635;SDS011;6383;50.830;7.210;2023-04-06T01:34:21;10.93;;;7.07;;
12635;SDS011;6383;50.830;7.210;2023-04-06T01:36:49;13.20;;;7.97;;
12635;SDS011;6383;50.830;7.210;2023-04-06T01:39:16;8.90;;;7.55;;
12635;SDS011;6383;50.830;7.210;2023-04-06T01:41:46;9.88;;;7.25;;
12635;SDS011;6383;50.830;7.210;2023-04-06T01:44:16;8.98;;;7.65;;
12635;SDS011;6383;50.830;7.210;2023-04-06T01:46:45;9.98;;;7.88;;
12635;SDS011;6383;50.830;7.210;2023-04-06T01:49:14;9.57;;;7.93;;
12635;SDS011;6383;50.830;7.210;2023-04-06T01:51:43;9.07;;;7.30;;
12635;SDS011;6383;50.830;7.210;2023-04-06T01:54:10;8.85;;;7.45;;
12635;SDS011;6383;50.830;7.210;2023-04-06T01:56:38;9.85;;;7.03;;
12635;SDS011;6383;50.830;7.210;2023-04-06T01:59:08;14.35;;;9.18;;
12635;SDS011;6383;50.830;7.210;2023-04-06T02:01:37;14.93;;;7.68;;
12635;SDS011;6383;50.830;7.210;2023-04-06T02:04:06;8.15;;;6.80;;
12635;SDS011;6383;50.830;7.210;2023-04-06T02:06:35;8.63;;;7.40;;
12635;SDS011;6383;50.830;7.210;2023-04-06T02:09:04;10.45;;;7.80;;
12635;SDS011;6383;50.830;7.210;2023-04-06T02:11:32;11.20;;;8.10;;
12635;SDS011;6383;50.830;7.210;2023-04-06T02:14:01;9.88;;;7.32;;
12635;SDS011;6383;50.830;7.210;2023-04-06T02:16:30;14.60;;;8.35;;
12635;SDS011;6383;50.830;7.210;2023-04-06T02:18:59;11.52;;;8.10;;
12635;SDS011;6383;50.830;7.210;2023-04-06T02:21:27;9.48;;;7.07;;
12635;SDS011;6383;50.830;7.210;2023-04-06T02:23:57;11.98;;;7.72;;
12635;SDS011;6383;50.830;7.210;2023-04-06T02:26:26;9.68;;;7.05;;
12635;SDS011;6383;50.830;7.210;2023-04-06T02:28:54;8.20;;;7.40;;
12635;SDS011;6383;50.830;7.210;2023-04-06T02:31:23;9.70;;;7.07;;
12635;SDS011;6383;50.830;7.210;2023-04-06T02:33:52;8.90;;;7.20;;
12635;SDS011;6383;50.830;7.210;2023-04-06T02:36:20;8.68;;;7.22;;
12635;SDS011;6383;50.830;7.210;2023-04-06T02:38:47;8.95;;;6.97;;
12635;SDS011;6383;50.830;7.210;2023-04-06T02:41:16;10.55;;;8.10;;
12635;SDS011;6383;50.830;7.210;2023-04-06T02:43:45;15.43;;;8.27;;
12635;SDS011;6383;50.830;7.210;2023-04-06T02:46:15;16.08;;;7.88;;
12635;SDS011;6383;50.830;7.210;2023-04-06T02:48:42;11.55;;;7.75;;
12635;SDS011;6383;50.830;7.210;2023-04-06T02:51:12;9.35;;;6.93;;
12635;SDS011;6383;50.830;7.210;2023-04-06T02:53:41;11.88;;;7.32;;
12635;SDS011;6383;50.830;7.210;2023-04-06T02:56:09;8.90;;;7.55;;
12635;SDS011;6383;50.830;7.210;2023-04-06T02:58:38;7.95;;;7.15;;
12635;SDS011;6383;50.830;7.210;2023-04-06T03:01:07;11.27;;;7.30;;
12635;SDS011;6383;50.830;7.210;2023-04-06T03:03:35;12.60;;;8.45;;
12635;SDS011;6383;50.830;7.210;2023-04-06T03:06:04;9.52;;;7.72;;
12635;SDS011;6383;50.830;7.210;2023-04-06T03:08:34;11.73;;;7.25;;
12635;SDS011;6383;50.830;7.210;2023-04-06T03:11:01;10.65;;;7.78;;
12635;SDS011;6383;50.830;7.210;2023-04-06T03:13:31;8.13;;;7.32;;
12635;SDS011;6383;50.830;7.210;2023-04-06T03:15:59;10.55;;;7.32;;
12635;SDS011;6383;50.830;7.210;2023-04-06T03:18:27;10.50;;;7.18;;
12635;SDS011;6383;50.830;7.210;2023-04-06T03:20:56;11.80;;;7.97;;
12635;SDS011;6383;50.830;7.210;2023-04-06T03:23:26;9.30;;;7.22;;
12635;SDS011;6383;50.830;7.210;2023-04-06T03:25:56;12.50;;;7.50;;
12635;SDS011;6383;50.830;7.210;2023-04-06T03:28:25;10.68;;;8.07;;
12635;SDS011;6383;50.830;7.210;2023-04-06T03:30:53;9.00;;;6.57;;
12635;SDS011;6383;50.830;7.210;2023-04-06T03:33:22;10.15;;;7.38;;
12635;SDS011;6383;50.830;7.210;2023-04-06T03:35:53;8.57;;;7.32;;
12635;SDS011;6383;50.830;7.210;2023-04-06T03:38:22;12.30;;;8.05;;
12635;SDS011;6383;50.830;7.210;2023-04-06T03:40:51;9.88;;;7.93;;
12635;SDS011;6383;50.830;7.210;2023-04-06T03:43:21;8.57;;;7.28;;
12635;SDS011;6383;50.830;7.210;2023-04-06T03:45:50;10.30;;;8.30;;
12635;SDS011;6383;50.830;7.210;2023-04-06T03:48:19;8.15;;;7.35;;
12635;SDS011;6383;50.830;7.210;2023-04-06T03:50:48;7.90;;;6.82;;
12635;SDS011;6383;50.830;7.210;2023-04-06T03:53:17;12.27;;;7.50;;
12635;SDS011;6383;50.830;7.210;2023-04-06T03:55:46;10.85;;;8.30;;
12635;SDS011;6383;50.830;7.210;2023-04-06T03:58:14;10.35;;;7.72;;
12635;SDS011;6383;50.830;7.210;2023-04-06T04:00:44;10.65;;;8.80;;
12635;SDS011;6383;50.830;7.210;2023-04-06T04:03:12;8.57;;;7.68;;
12635;SDS011;6383;50.830;7.210;2023-04-06T04:05:42;9.63;;;7.97;;
12635;SDS011;6383;50.830;7.210;2023-04-06T04:08:10;11.15;;;7.20;;
12635;SDS011;6383;50.830;7.210;2023-04-06T04:10:37;9.18;;;7.35;;
12635;SDS011;6383;50.830;7.210;2023-04-06T04:13:05;12.48;;;8.32;;
12635;SDS011;6383;50.830;7.210;2023-04-06T04:15:32;13.10;;;7.82;;
12635;SDS011;6383;50.830;7.210;2023-04-06T04:18:01;7.97;;;7.18;;
12635;SDS011;6383;50.830;7.210;2023-04-06T04:20:30;10.95;;;7.63;;
12635;SDS011;6383;50.830;7.210;2023-04-06T04:22:57;7.93;;;7.10;;
12635;SDS011;6383;50.830;7.210;2023-04-06T04:25:27;8.13;;;7.38;;
12635;SDS011;6383;50.830;7.210;2023-04-06T04:27:55;12.75;;;7.72;;
12635;SDS011;6383;50.830;7.210;2023-04-06T04:30:23;9.02;;;8.13;;
12635;SDS011;6383;50.830;7.210;2023-04-06T04:32:52;10.98;;;8.48;;
12635;SDS011;6383;50.830;7.210;2023-04-06T04:35:22;10.20;;;7.88;;
12635;SDS011;6383;50.830;7.210;2023-04-06T04:37:51;8.15;;;7.20;;
12635;SDS011;6383;50.830;7.210;2023-04-06T04:40:18;9.45;;;7.70;;
12635;SDS011;6383;50.830;7.210;2023-04-06T04:42:49;10.45;;;8.02;;
12635;SDS011;6383;50.830;7.210;2023-04-06T04:45:19;8.98;;;7.53;;
12635;SDS011;6383;50.830;7.210;2023-04-06T04:47:48;9.15;;;7.60;;
12635;SDS011;6383;50.830;7.210;2023-04-06T04:50:16;10.68;;;7.50;;
12635;SDS011;6383;50.830;7.210;2023-04-06T04:52:45;12.48;;;8.18;;
12635;SDS011;6383;50.830;7.210;2023-04-06T04:55:14;14.70;;;11.45;;
12635;SDS011;6383;50.830;7.210;2023-04-06T04:57:43;9.55;;;8.50;;
12635;SDS011;6383;50.830;7.210;2023-04-06T05:00:11;9.02;;;8.10;;
12635;SDS011;6383;50.830;7.210;2023-04-06T05:02:40;9.82;;;7.95;;
12635;SDS011;6383;50.830;7.210;2023-04-06T05:05:09;11.15;;;8.18;;
12635;SDS011;6383;50.830;7.210;2023-04-06T05:07:37;12.23;;;8.38;;
12635;SDS011;6383;50.830;7.210;2023-04-06T05:10:07;9.88;;;8.85;;
12635;SDS011;6383;50.830;7.210;2023-04-06T05:12:35;11.18;;;7.80;;
12635;SDS011;6383;50.830;7.210;2023-04-06T05:15:05;9.80;;;7.70;;
12635;SDS011;6383;50.830;7.210;2023-04-06T05:17:34;18.80;;;8.23;;
12635;SDS011;6383;50.830;7.210;2023-04-06T05:20:03;13.23;;;8.38;;
12635;SDS011;6383;50.830;7.210;2023-04-06T05:22:32;10.05;;;8.10;;
12635;SDS011;6383;50.830;7.210;2023-04-06T05:25:01;10.63;;;8.57;;
12635;SDS011;6383;50.830;7.210;2023-04-06T05:27:29;8.80;;;6.72;;
12635;SDS011;6383;50.830;7.210;2023-04-06T05:29:58;10.25;;;8.15;;
12635;SDS011;6383;50.830;7.210;2023-04-06T05:32:28;9.75;;;8.27;;
12635;SDS011;6383;50.830;7.210;2023-04-06T05:34:57;11.45;;;7.72;;
12635;SDS011;6383;50.830;7.210;2023-04-06T05:37:25;9.02;;;7.97;;
12635;SDS011;6383;50.830;7.210;2023-04-06T05:39:54;11.02;;;8.18;;
12635;SDS011;6383;50.830;7.210;2023-04-06T05:42:22;8.55;;;7.65;;
12635;SDS011;6383;50.830;7.210;2023-04-06T05:44:52;12.18;;;9.02;;
12635;SDS011;6383;50.830;7.210;2023-04-06T05:47:20;10.10;;;7.97;;
12635;SDS011;6383;50.830;7.210;2023-04-06T05:49:48;13.82;;;8.63;;
12635;SDS011;6383;50.830;7.210;2023-04-06T05:52:16;12.05;;;8.48;;
12635;SDS011;6383;50.830;7.210;2023-04-06T05:54:44;15.73;;;8.52;;
12635;SDS011;6383;50.830;7.210;2023-04-06T05:57:12;9.88;;;7.70;;
12635;SDS011;6383;50.830;7.210;2023-04-06T05:59:39;9.65;;;7.53;;
12635;SDS011;6383;50.830;7.210;2023-04-06T06:02:08;11.00;;;8.57;;
12635;SDS011;6383;50.830;7.210;2023-04-06T06:04:37;12.85;;;8.88;;
12635;SDS011;6383;50.830;7.210;2023-04-06T06:07:06;14.68;;;8.02;;
12635;SDS011;6383;50.830;7.210;2023-04-06T06:09:33;14.57;;;8.27;;
12635;SDS011;6383;50.830;7.210;2023-04-06T06:12:03;11.40;;;8.20;;
12635;SDS011;6383;50.830;7.210;2023-04-06T06:14:30;9.25;;;8.35;;
12635;SDS011;6383;50.830;7.210;2023-04-06T06:16:59;10.43;;;7.80;;
12635;SDS011;6383;50.830;7.210;2023-04-06T06:19:30;9.98;;;8.20;;
12635;SDS011;6383;50.830;7.210;2023-04-06T06:21:58;12.18;;;8.63;;
12635;SDS011;6383;50.830;7.210;2023-04-06T06:24:28;12.55;;;8.68;;
12635;SDS011;6383;50.830;7.210;2023-04-06T06:26:58;14.70;;;8.55;;
12635;SDS011;6383;50.830;7.210;2023-04-06T06:29:26;17.88;;;9.45;;
12635;SDS011;6383;50.830;7.210;2023-04-06T06:31:53;11.60;;;9.45;;
12635;SDS011;6383;50.830;7.210;2023-04-06T06:34:22;10.52;;;8.65;;
12635;SDS011;6383;50.830;7.210;2023-04-06T06:36:52;10.88;;;7.93;;
12635;SDS011;6383;50.830;7.210;2023-04-06T06:39:21;12.90;;;8.43;;
12635;SDS011;6383;50.830;7.210;2023-04-06T06:41:50;10.15;;;8.25;;
12635;SDS011;6383;50.830;7.210;2023-04-06T06:44:17;9.90;;;8.90;;
12635;SDS011;6383;50.830;7.210;2023-04-06T06:46:46;14.73;;;8.98;;
12635;SDS011;6383;50.830;7.210;2023-04-06T06:49:15;11.82;;;9.02;;
12635;SDS011;6383;50.830;7.210;2023-04-06T06:51:44;12.27;;;9.05;;
12635;SDS011;6383;50.830;7.210;2023-04-06T06:54:14;10.20;;;9.10;;
12635;SDS011;6383;50.830;7.210;2023-04-06T06:56:43;14.70;;;9.50;;
12635;SDS011;6383;50.830;7.210;2023-04-06T06:59:12;10.27;;;8.93;;
12635;SDS011;6383;50.830;7.210;2023-04-06T07:01:41;11.65;;;8.20;;
12635;SDS011;6383;50.830;7.210;2023-04-06T07:04:10;13.40;;;8.07;;
12635;SDS011;6383;50.830;7.210;2023-04-06T07:06:38;13.15;;;8.82;;
12635;SDS011;6383;50.830;7.210;2023-04-06T07:09:07;11.98;;;8.77;;
12635;SDS011;6383;50.830;7.210;2023-04-06T07:11:36;14.90;;;10.63;;
12635;SDS011;6383;50.830;7.210;2023-04-06T07:14:05;14.82;;;10.32;;
12635;SDS011;6383;50.830;7.210;2023-04-06T07:16:35;15.88;;;10.73;;
12635;SDS011;6383;50.830;7.210;2023-04-06T07:19:03;13.93;;;10.40;;
12635;SDS011;6383;50.830;7.210;2023-04-06T07:21:32;12.32;;;8.65;;
12635;SDS011;6383;50.830;7.210;2023-04-06T07:24:01;13.15;;;9.05;;
12635;SDS011;6383;50.830;7.210;2023-04-06T07:26:29;13.00;;;7.95;;
12635;SDS011;6383;50.830;7.210;2023-04-06T07:28:59;10.30;;;6.13;;
12635;SDS011;6383;50.830;7.210;2023-04-06T07:31:26;10.43;;;6.22;;
12635;SDS011;6383;50.830;7.210;2023-04-06T07:33:56;13.30;;;6.40;;
12635;SDS011;6383;50.830;7.210;2023-04-06T07:36:24;7.88;;;6.13;;
12635;SDS011;6383;50.830;7.210;2023-04-06T07:38:54;10.45;;;7.13;;
12635;SDS011;6383;50.830;7.210;2023-04-06T07:41:23;9.88;;;6.65;;
12635;SDS011;6383;50.830;7.210;2023-04-06T07:43:52;9.23;;;6.38;;
12635;SDS011;6383;50.830;7.210;2023-04-06T07:46:23;16.48;;;7.28;;
12635;SDS011;6383;50.830;7.210;2023-04-06T07:48:52;8.80;;;6.95;;
12635;SDS011;6383;50.830;7.210;2023-04-06T07:51:21;9.65;;;6.90;;
12635;SDS011;6383;50.830;7.210;2023-04-06T07:53:50;13.18;;;6.43;;
12635;SDS011;6383;50.830;7.210;2023-04-06T07:56:20;14.80;;;7.85;;
12635;SDS011;6383;50.830;7.210;2023-04-06T07:58:49;11.25;;;6.30;;
12635;SDS011;6383;50.830;7.210;2023-04-06T08:01:18;10.73;;;6.57;;
12635;SDS011;6383;50.830;7.210;2023-04-06T08:03:48;8.65;;;6.07;;
12635;SDS011;6383;50.830;7.210;2023-04-06T08:06:17;10.00;;;6.65;;
12635;SDS011;6383;50.830;7.210;2023-04-06T08:08:47;9.85;;;6.63;;
12635;SDS011;6383;50.830;7.210;2023-04-06T08:11:14;10.98;;;7.68;;
12635;SDS011;6383;50.830;7.210;2023-04-06T08:13:43;16.00;;;7.45;;
12635;SDS011;6383;50.830;7.210;2023-04-06T08:16:12;11.48;;;6.88;;
12635;SDS011;6383;50.830;7.210;2023-04-06T08:18:42;12.45;;;7.38;;
12635;SDS011;6383;50.830;7.210;2023-04-06T08:21:11;13.35;;;7.80;;
12635;SDS011;6383;50.830;7.210;2023-04-06T08:23:40;14.57;;;7.07;;
12635;SDS011;6383;50.830;7.210;2023-04-06T08:26:09;12.65;;;6.97;;
12635;SDS011;6383;50.830;7.210;2023-04-06T08:28:38;9.65;;;6.82;;
12635;SDS011;6383;50.830;7.210;2023-04-06T08:31:07;10.57;;;7.72;;
12635;SDS011;6383;50.830;7.210;2023-04-06T08:33:40;15.20;;;8.88;;
12635;SDS011;6383;50.830;7.210;2023-04-06T08:36:11;10.63;;;7.85;;
12635;SDS011;6383;50.830;7.210;2023-04-06T08:38:40;10.88;;;7.47;;
12635;SDS011;6383;50.830;7.210;2023-04-06T08:41:10;8.73;;;7.75;;
12635;SDS011;6383;50.830;7.210;2023-04-06T08:43:42;9.55;;;7.50;;
12635;SDS011;6383;50.830;7.210;2023-04-06T08:46:11;12.73;;;7.93;;
12635;SDS011;6383;50.830;7.210;2023-04-06T08:48:41;12.88;;;8.13;;
12635;SDS011;6383;50.830;7.210;2023-04-06T08:51:12;11.20;;;7.53;;
12635;SDS011;6383;50.830;7.210;2023-04-06T08:53:41;12.43;;;7.78;;
12635;SDS011;6383;50.830;7.210;2023-04-06T08:56:10;13.27;;;7.70;;
12635;SDS011;6383;50.830;7.210;2023-04-06T09:01:09;11.27;;;7.45;;
12635;SDS011;6383;50.830;7.210;2023-04-06T09:03:41;10.68;;;7.68;;
12635;SDS011;6383;50.830;7.210;2023-04-06T09:06:10;10.98;;;7.47;;
12635;SDS011;6383;50.830;7.210;2023-04-06T09:08:41;13.63;;;9.77;;
12635;SDS011;6383;50.830;7.210;2023-04-06T09:11:10;13.73;;;9.15;;
12635;SDS011;6383;50.830;7.210;2023-04-06T09:13:45;14.40;;;8.90;;
12635;SDS011;6383;50.830;7.210;2023-04-06T09:16:15;18.85;;;8.55;;
12635;SDS011;6383;50.830;7.210;2023-04-06T09:18:44;13.73;;;8.70;;
12635;SDS011;6383;50.830;7.210;2023-04-06T09:21:16;13.50;;;8.52;;
12635;SDS011;6383;50.830;7.210;2023-04-06T09:23:46;14.98;;;9.50;;
12635;SDS011;6383;50.830;7.210;2023-04-06T09:26:15;15.38;;;9.63;;
12635;SDS011;6383;50.830;7.210;2023-04-06T09:28:46;15.10;;;9.32;;
12635;SDS011;6383;50.830;7.210;2023-04-06T09:31:16;12.32;;;9.07;;
12635;SDS011;6383;50.830;7.210;2023-04-06T09:33:50;17.05;;;10.02;;
12635;SDS011;6383;50.830;7.210;2023-04-06T09:36:28;17.40;;;10.07;;
12635;SDS011;6383;50.830;7.210;2023-04-06T09:39:00;15.73;;;9.80;;
12635;SDS011;6383;50.830;7.210;2023-04-06T09:41:30;13.80;;;10.38;;
12635;SDS011;6383;50.830;7.210;2023-04-06T09:44:02;15.48;;;9.50;;
12635;SDS011;6383;50.830;7.210;2023-04-06T09:46:32;19.30;;;10.45;;
12635;SDS011;6383;50.830;7.210;2023-04-06T09:49:01;16.80;;;10.98;;
12635;SDS011;6383;50.830;7.210;2023-04-06T09:51:32;15.02;;;9.77;;
12635;SDS011;6383;50.830;7.210;2023-04-06T09:54:07;15.90;;;10.50;;
12635;SDS011;6383;50.830;7.210;2023-04-06T09:56:38;27.52;;;10.63;;
12635;SDS011;6383;50.830;7.210;2023-04-06T09:59:15;15.50;;;10.07;;
12635;SDS011;6383;50.830;7.210;2023-04-06T10:01:49;18.02;;;11.50;;
12635;SDS011;6383;50.830;7.210;2023-04-06T10:04:26;15.80;;;10.02;;
12635;SDS011;6383;50.830;7.210;2023-04-06T10:07:03;20.13;;;10.40;;
12635;SDS011;6383;50.830;7.210;2023-04-06T10:09:35;13.77;;;10.18;;
12635;SDS011;6383;50.830;7.210;2023-04-06T10:12:06;18.55;;;10.52;;
12635;SDS011;6383;50.830;7.210;2023-04-06T10:14:34;16.58;;;10.43;;
12635;SDS011;6383;50.830;7.210;2023-04-06T10:17:03;21.90;;;11.55;;
12635;SDS011;6383;50.830;7.210;2023-04-06T10:19:34;15.57;;;10.70;;
12635;SDS011;6383;50.830;7.210;2023-04-06T10:22:10;15.80;;;9.95;;
12635;SDS011;6383;50.830;7.210;2023-04-06T10:24:48;17.98;;;10.77;;
12635;SDS011;6383;50.830;7.210;2023-04-06T10:27:26;13.40;;;10.00;;
12635;SDS011;6383;50.830;7.210;2023-04-06T10:30:00;14.93;;;10.93;;
12635;SDS011;6383;50.830;7.210;2023-04-06T10:32:34;19.10;;;10.93;;
12635;SDS011;6383;50.830;7.210;2023-04-06T10:35:07;18.10;;;10.95;;
12635;SDS011;6383;50.830;7.210;2023-04-06T10:40:30;16.15;;;11.30;;
12635;SDS011;6383;50.830;7.210;2023-04-06T10:43:07;16.83;;;11.00;;
12635;SDS011;6383;50.830;7.210;2023-04-06T10:45:37;14.55;;;10.60;;
12635;SDS011;6383;50.830;7.210;2023-04-06T10:48:12;15.55;;;10.60;;
12635;SDS011;6383;50.830;7.210;2023-04-06T10:50:43;16.17;;;11.73;;
12635;SDS011;6383;50.830;7.210;2023-04-06T10:53:20;16.77;;;11.10;;
12635;SDS011;6383;50.830;7.210;2023-04-06T10:55:52;17.98;;;11.15;;
12635;SDS011;6383;50.830;7.210;2023-04-06T10:58:24;17.87;;;12.53;;
12635;SDS011;6383;50.830;7.210;2023-04-06T11:00:54;19.05;;;11.85;;
12635;SDS011;6383;50.830;7.210;2023-04-06T11:03:21;15.60;;;11.52;;
12635;SDS011;6383;50.830;7.210;2023-04-06T11:05:51;18.45;;;11.48;;
12635;SDS011;6383;50.830;7.210;2023-04-06T11:08:24;21.02;;;12.48;;
12635;SDS011;6383;50.830;7.210;2023-04-06T11:11:07;17.48;;;12.20;;
12635;SDS011;6383;50.830;7.210;2023-04-06T11:13:38;18.50;;;13.55;;
12635;SDS011;6383;50.830;7.210;2023-04-06T11:16:12;18.95;;;13.18;;
12635;SDS011;6383;50.830;7.210;2023-04-06T11:18:50;16.15;;;11.77;;
12635;SDS011;6383;50.830;7.210;2023-04-06T11:21:20;17.52;;;12.20;;
12635;SDS011;6383;50.830;7.210;2023-04-06T11:24:06;21.00;;;14.48;;
12635;SDS011;6383;50.830;7.210;2023-04-06T11:26:42;17.90;;;12.82;;
12635;SDS011;6383;50.830;7.210;2023-04-06T11:29:19;17.27;;;12.38;;
12635;SDS011;6383;50.830;7.210;2023-04-06T11:31:49;20.33;;;12.80;;
12635;SDS011;6383;50.830;7.210;2023-04-06T11:34:20;24.80;;;13.50;;
12635;SDS011;6383;50.830;7.210;2023-04-06T11:36:54;17.02;;;12.57;;
12635;SDS011;6383;50.830;7.210;2023-04-06T11:39:24;19.10;;;13.23;;
12635;SDS011;6383;50.830;7.210;2023-04-06T11:41:57;16.20;;;12.15;;
12635;SDS011;6383;50.830;7.210;2023-04-06T11:44:28;17.42;;;13.27;;
12635;SDS011;6383;50.830;7.210;2023-04-06T11:46:58;18.50;;;12.80;;
12635;SDS011;6383;50.830;7.210;2023-04-06T11:49:29;25.73;;;13.27;;
12635;SDS011;6383;50.830;7.210;2023-04-06T11:51:59;16.98;;;13.18;;
12635;SDS011;6383;50.830;7.210;2023-04-06T11:54:29;21.33;;;12.77;;
12635;SDS011;6383;50.830;7.210;2023-04-06T11:57:01;20.10;;;13.43;;
12635;SDS011;6383;50.830;7.210;2023-04-06T11:59:30;21.73;;;12.75;;
12635;SDS011;6383;50.830;7.210;2023-04-06T12:01:58;19.85;;;12.68;;
12635;SDS011;6383;50.830;7.210;2023-04-06T12:04:27;17.67;;;12.25;;
12635;SDS011;6383;50.830;7.210;2023-04-06T12:06:57;24.90;;;13.50;;
12635;SDS011;6383;50.830;7.210;2023-04-06T12:09:26;18.20;;;12.52;;
12635;SDS011;6383;50.830;7.210;2023-04-06T12:11:56;16.45;;;12.80;;
12635;SDS011;6383;50.830;7.210;2023-04-06T12:14:26;20.80;;;13.77;;
12635;SDS011;6383;50.830;7.210;2023-04-06T12:16:56;14.68;;;11.35;;
12635;SDS011;6383;50.830;7.210;2023-04-06T12:19:24;16.05;;;11.30;;
12635;SDS011;6383;50.830;7.210;2023-04-06T12:21:54;17.33;;;11.75;;
12635;SDS011;6383;50.830;7.210;2023-04-06T12:24:24;18.75;;;11.63;;
12635;SDS011;6383;50.830;7.210;2023-04-06T12:26:53;14.15;;;10.82;;
12635;SDS011;6383;50.830;7.210;2023-04-06T12:29:23;16.90;;;13.00;;
12635;SDS011;6383;50.830;7.210;2023-04-06T12:31:53;20.05;;;11.52;;
12635;SDS011;6383;50.830;7.210;2023-04-06T12:34:21;16.60;;;11.57;;
12635;SDS011;6383;50.830;7.210;2023-04-06T12:36:50;16.70;;;11.82;;
12635;SDS011;6383;50.830;7.210;2023-04-06T12:39:19;12.63;;;11.02;;
12635;SDS011;6383;50.830;7.210;2023-04-06T12:41:47;14.00;;;11.57;;
12635;SDS011;6383;50.830;7.210;2023-04-06T12:44:16;16.70;;;11.95;;
12635;SDS011;6383;50.830;7.210;2023-04-06T12:46:45;17.40;;;12.32;;
12635;SDS011;6383;50.830;7.210;2023-04-06T12:49:15;14.75;;;10.50;;
12635;SDS011;6383;50.830;7.210;2023-04-06T12:51:47;13.45;;;10.10;;
12635;SDS011;6383;50.830;7.210;2023-04-06T12:54:15;15.77;;;11.07;;
12635;SDS011;6383;50.830;7.210;2023-04-06T12:56:43;13.57;;;10.63;;
12635;SDS011;6383;50.830;7.210;2023-04-06T12:59:12;16.63;;;9.40;;
12635;SDS011;6383;50.830;7.210;2023-04-06T13:01:41;14.77;;;10.20;;
12635;SDS011;6383;50.830;7.210;2023-04-06T13:04:10;12.65;;;9.23;;
12635;SDS011;6383;50.830;7.210;2023-04-06T13:06:41;16.05;;;8.73;;
12635;SDS011;6383;50.830;7.210;2023-04-06T13:09:08;13.40;;;8.95;;
12635;SDS011;6383;50.830;7.210;2023-04-06T13:11:37;13.63;;;9.68;;
12635;SDS011;6383;50.830;7.210;2023-04-06T13:14:06;15.70;;;8.88;;
12635;SDS011;6383;50.830;7.210;2023-04-06T13:16:34;13.27;;;9.30;;
12635;SDS011;6383;50.830;7.210;2023-04-06T13:19:02;10.90;;;8.68;;
12635;SDS011;6383;50.830;7.210;2023-04-06T13:21:30;13.68;;;8.68;;
12635;SDS011;6383;50.830;7.210;2023-04-06T13:24:01;19.17;;;9.10;;
12635;SDS011;6383;50.830;7.210;2023-04-06T13:26:30;11.32;;;8.32;;
12635;SDS011;6383;50.830;7.210;2023-04-06T13:28:59;11.63;;;7.13;;
12635;SDS011;6383;50.830;7.210;2023-04-06T13:31:28;8.07;;;6.88;;
12635;SDS011;6383;50.830;7.210;2023-04-06T13:33:56;14.00;;;7.60;;
12635;SDS011;6383;50.830;7.210;2023-04-06T13:36:25;12.40;;;8.10;;
12635;SDS011;6383;50.830;7.210;2023-04-06T13:38:54;11.10;;;8.25;;
12635;SDS011;6383;50.830;7.210;2023-04-06T13:41:25;10.73;;;8.50;;
12635;SDS011;6383;50.830;7.210;2023-04-06T13:43:55;9.60;;;7.30;;
12635;SDS011;6383;50.830;7.210;2023-04-06T13:46:25;9.07;;;6.70;;
12635;SDS011;6383;50.830;7.210;2023-04-06T13:48:55;8.85;;;7.00;;
12635;SDS011;6383;50.830;7.210;2023-04-06T13:51:23;9.52;;;4.85;;
12635;SDS011;6383;50.830;7.210;2023-04-06T13:53:53;8.02;;;5.32;;
12635;SDS011;6383;50.830;7.210;2023-04-06T13:56:22;8.05;;;4.70;;
12635;SDS011;6383;50.830;7.210;2023-04-06T13:58:54;9.38;;;5.85;;
12635;SDS011;6383;50.830;7.210;2023-04-06T14:01:24;7.75;;;5.47;;
12635;SDS011;6383;50.830;7.210;2023-04-06T14:03:53;18.63;;;5.47;;
12635;SDS011;6383;50.830;7.210;2023-04-06T14:06:20;7.97;;;5.57;;
12635;SDS011;6383;50.830;7.210;2023-04-06T14:08:48;7.45;;;6.10;;
12635;SDS011;6383;50.830;7.210;2023-04-06T14:11:17;7.18;;;5.60;;
12635;SDS011;6383;50.830;7.210;2023-04-06T14:13:46;6.13;;;5.15;;
12635;SDS011;6383;50.830;7.210;2023-04-06T14:16:16;7.93;;;5.22;;
12635;SDS011;6383;50.830;7.210;2023-04-06T14:18:45;7.55;;;4.65;;
12635;SDS011;6383;50.830;7.210;2023-04-06T14:21:14;6.70;;;5.03;;
12635;SDS011;6383;50.830;7.210;2023-04-06T14:23:43;8.48;;;4.53;;
12635;SDS011;6383;50.830;7.210;2023-04-06T14:26:13;4.88;;;4.38;;
12635;SDS011;6383;50.830;7.210;2023-04-06T14:28:41;4.95;;;3.92;;
12635;SDS011;6383;50.830;7.210;2023-04-06T14:31:10;8.93;;;5.07;;
12635;SDS011;6383;50.830;7.210;2023-04-06T14:33:40;8.30;;;5.78;;
12635;SDS011;6383;50.830;7.210;2023-04-06T14:36:09;5.90;;;5.00;;
12635;SDS011;6383;50.830;7.210;2023-04-06T14:38:38;5.43;;;4.93;;
12635;SDS011;6383;50.830;7.210;2023-04-06T14:41:07;8.73;;;4.75;;
12635;SDS011;6383;50.830;7.210;2023-04-06T14:43:36;6.72;;;5.00;;
12635;SDS011;6383;50.830;7.210;2023-04-06T14:46:05;7.93;;;5.28;;
12635;SDS011;6383;50.830;7.210;2023-04-06T14:48:35;7.72;;;5.57;;
12635;SDS011;6383;50.830;7.210;2023-04-06T14:51:04;7.30;;;5.80;;
12635;SDS011;6383;50.830;7.210;2023-04-06T14:53:34;7.60;;;6.05;;
12635;SDS011;6383;50.830;7.210;2023-04-06T14:56:01;8.32;;;6.63;;
12635;SDS011;6383;50.830;7.210;2023-04-06T14:58:29;8.50;;;6.47;;
12635;SDS011;6383;50.830;7.210;2023-04-06T15:00:58;9.10;;;7.22;;
12635;SDS011;6383;50.830;7.210;2023-04-06T15:03:28;10.60;;;6.95;;
12635;SDS011;6383;50.830;7.210;2023-04-06T15:05:57;12.13;;;7.22;;
12635;SDS011;6383;50.830;7.210;2023-04-06T15:08:27;7.13;;;6.43;;